Time;durP1;ratioP1;P1;durP2;ratioP2;P2;SDS_P1;SDS_P2;PMS_P1;PMS_P2;Temp;Humidity;BMP_temperature;BMP_pressure;BME280_temperature;BME280_humidity;BME280_pressure;Samples;Min_cycle;Max_cycle;Signal;HPM_P1;HPM_P2
2022/02/18 00:33:28;;;;;;;2.90;0.60;;;2.70;96.30;;;;;;5857307;23;20464;-77
2022/02/18 00:35:53;;;;;;;4.07;0.90;;;2.70;96.30;;;;;;5053875;28;21167;-77
2022/02/18 00:38:19;;;;;;;2.73;1.07;;;2.70;96.30;;;;;;5037498;28;20172;-77
2022/02/18 00:40:45;;;;;;;4.20;1.17;;;2.80;96.30;;;;;;5041776;28;20248;-77
2022/02/18 00:43:11;;;;;;;2.80;1.03;;;2.80;96.30;;;;;;5075435;28;20305;-77
2022/02/18 00:45:37;;;;;;;2.40;0.80;;;2.80;96.30;;;;;;5075817;28;20433;-77
2022/02/18 00:48:02;;;;;;;3.30;0.90;;;2.90;96.30;;;;;;5057879;28;20226;-77
2022/02/18 00:50:28;;;;;;;4.60;1.70;;;3.00;96.30;;;;;;5075704;28;20159;-77
2022/02/18 00:52:53;;;;;;;4.40;0.97;;;3.00;96.30;;;;;;5075394;28;20250;-77
2022/02/18 00:55:19;;;;;;;2.03;0.60;;;3.00;96.30;;;;;;5057357;28;20175;-77
2022/02/18 00:57:44;;;;;;;3.83;1.23;;;3.00;96.30;;;;;;5075438;28;20724;-77
2022/02/18 05:01:22;;;;;;;4.40;1.10;;;3.30;96.30;;;;;;5574242;23;20998;-78
2022/02/18 05:03:47;;;;;;;8.33;1.43;;;3.30;96.30;;;;;;5003850;28;20424;-78
2022/02/18 05:06:14;;;;;;;5.40;1.17;;;3.40;96.30;;;;;;5014184;28;20173;-78
2022/02/18 05:08:40;;;;;;;3.50;1.03;;;3.50;96.30;;;;;;5011712;28;20643;-78
2022/02/18 05:11:05;;;;;;;12.20;1.67;;;3.50;96.30;;;;;;4987630;28;20500;-78
2022/02/18 05:13:31;;;;;;;9.00;2.17;;;3.60;96.30;;;;;;4974763;28;20202;-78
2022/02/18 05:15:56;;;;;;;2.67;0.87;;;3.60;96.30;;;;;;4975610;28;20222;-78
2022/02/18 05:18:22;;;;;;;10.70;1.60;;;3.70;96.30;;;;;;4970616;28;20252;-78
2022/02/18 05:20:48;;;;;;;5.60;1.50;;;3.80;96.30;;;;;;5220197;23;20213;-79
2022/02/18 05:23:13;;;;;;;8.10;1.40;;;3.80;96.30;;;;;;5053510;28;20476;-77
2022/02/18 05:25:39;;;;;;;8.23;1.43;;;3.70;96.30;;;;;;5053209;28;20599;-78
2022/02/18 05:28:04;;;;;;;2.90;0.93;;;3.70;96.30;;;;;;5035724;28;20180;-78
2022/02/18 05:30:33;;;;;;;4.43;1.43;;;3.70;96.30;;;;;;5053590;28;20568;-78
2022/02/18 05:32:59;;;;;;;7.40;1.80;;;3.60;96.30;;;;;;5044563;28;20593;-78
2022/02/18 05:35:24;;;;;;;3.43;1.07;;;3.60;96.30;;;;;;5049126;28;20515;-78
2022/02/18 05:37:50;;;;;;;3.20;1.23;;;3.70;96.30;;;;;;5033715;28;20184;-78
2022/02/18 05:40:15;;;;;;;7.67;1.33;;;3.60;96.30;;;;;;5026724;28;20203;-77
2022/02/18 05:42:41;;;;;;;5.53;1.23;;;3.60;96.30;;;;;;5033373;28;20668;-78
2022/02/18 05:45:07;;;;;;;11.10;1.63;;;3.60;96.30;;;;;;5032965;28;20215;-77
2022/02/18 05:47:37;;;;;;;4.33;1.30;;;3.60;96.30;;;;;;5052800;28;20187;-77
2022/02/18 05:50:13;;;;;;;6.67;1.80;;;3.60;96.30;;;;;;5055900;28;20475;-78
2022/02/18 05:52:40;;;;;;;4.10;1.67;;;3.60;96.30;;;;;;5058659;28;20621;-76
2022/02/18 05:55:06;;;;;;;11.17;1.97;;;3.50;96.30;;;;;;5053049;28;20414;-77
2022/02/18 05:57:32;;;;;;;4.07;1.17;;;3.50;96.30;;;;;;5053263;28;20505;-76
2022/02/18 05:59:57;;;;;;;6.60;3.10;;;3.50;96.30;;;;;;5053120;28;20497;-77
2022/02/18 06:02:23;;;;;;;6.83;1.67;;;3.50;96.30;;;;;;5053101;28;20453;-74
2022/02/18 06:04:49;;;;;;;12.20;2.03;;;3.40;96.30;;;;;;5050846;28;20667;-77
2022/02/18 06:07:17;;;;;;;5.70;1.57;;;3.40;96.30;;;;;;5046147;28;20202;-74
2022/02/18 06:09:44;;;;;;;5.00;1.07;;;3.50;96.30;;;;;;5052640;28;20172;-77
2022/02/18 06:12:10;;;;;;;4.67;1.87;;;3.50;96.30;;;;;;5035498;28;20454;-77
2022/02/18 06:14:36;;;;;;;7.00;1.60;;;3.50;96.30;;;;;;5048324;28;20469;-76
2022/02/18 06:17:06;;;;;;;4.03;1.40;;;3.60;96.30;;;;;;5046590;28;20823;-78
2022/02/18 06:19:32;;;;;;;9.67;1.80;;;3.50;96.30;;;;;;5065813;28;20239;-77
2022/02/18 06:21:58;;;;;;;5.00;1.27;;;3.50;96.30;;;;;;5062071;28;20519;-79
2022/02/18 06:24:23;;;;;;;9.23;1.57;;;3.60;96.30;;;;;;5065710;28;20167;-78
2022/02/18 06:26:49;;;;;;;5.93;1.63;;;3.70;96.30;;;;;;5068745;28;20194;-76
2022/02/18 06:29:14;;;;;;;9.03;2.10;;;3.70;96.30;;;;;;5068322;28;20183;-76
2022/02/18 06:31:40;;;;;;;12.10;1.90;;;3.70;96.30;;;;;;5062878;28;20210;-75
2022/02/18 06:34:05;;;;;;;8.37;1.57;;;3.70;96.30;;;;;;5056921;28;20198;-80
2022/02/18 06:36:31;;;;;;;10.63;1.50;;;3.70;96.30;;;;;;5046873;28;20216;-77
2022/02/18 06:38:56;;;;;;;5.07;1.43;;;3.70;96.30;;;;;;5053192;28;20183;-78
2022/02/18 06:41:22;;;;;;;6.53;1.70;;;3.80;96.30;;;;;;5053237;28;20210;-76
2022/02/18 06:43:47;;;;;;;15.37;1.90;;;3.80;96.30;;;;;;5053623;28;20698;-77
2022/02/18 06:46:13;;;;;;;6.47;1.53;;;3.80;96.30;;;;;;5052626;28;20225;-77
2022/02/18 06:48:38;;;;;;;4.63;1.60;;;3.90;96.30;;;;;;5052909;28;20164;-76
2022/02/18 06:51:05;;;;;;;9.60;1.63;;;3.90;96.30;;;;;;5053769;28;20639;-76
2022/02/18 06:53:31;;;;;;;4.30;1.70;;;3.90;96.30;;;;;;5049549;28;20203;-76
2022/02/18 06:55:57;;;;;;;9.83;1.83;;;3.80;96.30;;;;;;5049464;28;20797;-77
2022/02/18 06:58:22;;;;;;;7.10;1.80;;;3.90;96.30;;;;;;5058645;28;20179;-76
2022/02/18 07:00:51;;;;;;;9.00;2.40;;;3.90;96.30;;;;;;5059339;28;20195;-77
2022/02/18 07:03:20;;;;;;;16.93;2.27;;;4.20;96.30;;;;;;5054737;28;20257;-77
2022/02/18 07:05:46;;;;;;;6.57;1.80;;;5.20;96.30;;;;;;5062869;28;20402;-77
2022/02/18 07:08:12;;;;;;;7.10;1.53;;;5.90;96.30;;;;;;5060787;28;20429;-77
2022/02/18 07:10:38;;;;;;;9.53;1.37;;;6.90;96.30;;;;;;5043589;28;20431;-77
2022/02/18 07:13:03;;;;;;;6.00;1.83;;;7.10;96.30;;;;;;5026604;28;20531;-77
2022/02/18 07:15:29;;;;;;;11.80;2.57;;;7.30;96.30;;;;;;5059990;28;20574;-77
2022/02/18 07:17:55;;;;;;;10.90;2.30;;;7.30;96.30;;;;;;5059244;28;20176;-76
2022/02/18 07:20:21;;;;;;;7.83;2.00;;;7.30;96.30;;;;;;5060495;28;20187;-77
2022/02/18 07:22:47;;;;;;;10.33;1.90;;;6.90;96.30;;;;;;5059665;28;20474;-77
2022/02/18 07:25:15;;;;;;;8.83;2.00;;;6.80;96.30;;;;;;5056915;28;20262;-77
2022/02/18 07:27:42;;;;;;;7.43;1.97;;;6.10;96.30;;;;;;5057041;28;20167;-77
2022/02/18 07:30:08;;;;;;;12.63;2.13;;;5.80;96.30;;;;;;5050152;28;20605;-76
2022/02/18 07:32:34;;;;;;;9.53;2.07;;;5.50;96.30;;;;;;5057205;28;20429;-77
2022/02/18 07:34:59;;;;;;;10.80;2.20;;;5.40;96.30;;;;;;5049697;28;20428;-77
2022/02/18 07:37:25;;;;;;;6.20;1.67;;;5.40;96.30;;;;;;5058818;28;20180;-77
2022/02/18 07:39:51;;;;;;;9.90;2.00;;;5.40;96.30;;;;;;5059998;28;20184;-77
2022/02/18 07:42:16;;;;;;;9.43;2.13;;;5.40;96.30;;;;;;5060301;28;20252;-76
2022/02/18 07:44:42;;;;;;;11.30;3.00;;;5.50;96.30;;;;;;5057168;28;20183;-76
2022/02/18 07:47:07;;;;;;;5.57;1.90;;;5.70;96.30;;;;;;5052673;28;20176;-77
2022/02/18 07:49:33;;;;;;;13.03;2.13;;;5.80;96.30;;;;;;5061576;28;20601;-77
2022/02/18 07:51:59;;;;;;;6.60;1.47;;;5.90;96.30;;;;;;5053719;28;20214;-77
2022/02/18 07:54:24;;;;;;;15.90;3.33;;;5.70;96.30;;;;;;5062307;28;20180;-76
2022/02/18 07:56:50;;;;;;;6.17;1.23;;;5.70;96.30;;;;;;5055416;28;20190;-74
2022/02/18 07:59:15;;;;;;;11.27;2.10;;;5.60;96.30;;;;;;5048512;28;20178;-74
2022/02/18 08:01:41;;;;;;;25.47;3.20;;;5.80;96.30;;;;;;5059210;28;20203;-77
2022/02/18 08:04:06;;;;;;;7.43;1.67;;;5.90;96.30;;;;;;5060675;28;20175;-77
2022/02/18 08:06:32;;;;;;;5.90;1.83;;;6.00;96.30;;;;;;5058453;28;20799;-77
2022/02/18 08:08:58;;;;;;;10.23;3.00;;;6.00;96.30;;;;;;5045821;28;20167;-77
2022/02/18 08:11:23;;;;;;;12.80;2.80;;;5.80;96.30;;;;;;5054878;28;20434;-78
2022/02/18 08:13:49;;;;;;;11.43;1.70;;;5.80;96.30;;;;;;5052816;28;20206;-77
2022/02/18 08:16:15;;;;;;;6.47;2.10;;;5.80;96.30;;;;;;5054582;28;20254;-76
2022/02/18 08:18:43;;;;;;;9.80;2.93;;;5.80;96.30;;;;;;5051633;28;20183;-77
2022/02/18 08:21:10;;;;;;;14.30;2.70;;;5.70;96.30;;;;;;5054537;28;20203;-76
2022/02/18 08:23:35;;;;;;;17.83;2.60;;;5.80;96.30;;;;;;5054775;28;20410;-77
2022/02/18 08:26:01;;;;;;;9.57;2.70;;;5.90;96.30;;;;;;5045818;28;20429;-77
2022/02/18 08:28:26;;;;;;;12.80;3.50;;;6.00;96.30;;;;;;5053404;28;20183;-77
2022/02/18 08:30:52;;;;;;;12.90;3.53;;;6.20;96.30;;;;;;5054768;28;20191;-77
2022/02/18 08:33:17;;;;;;;10.93;2.77;;;6.20;96.30;;;;;;5048045;28;20185;-76
2022/02/18 08:35:43;;;;;;;11.73;3.33;;;6.30;96.30;;;;;;5049466;28;20660;-77
2022/02/18 08:38:08;;;;;;;14.60;2.60;;;6.30;96.30;;;;;;5026889;28;20172;-77
2022/02/18 08:40:35;;;;;;;10.73;4.53;;;6.40;96.30;;;;;;5034315;28;20200;-78
2022/02/18 08:43:01;;;;;;;17.47;3.10;;;6.40;96.30;;;;;;5034393;28;20192;-76
2022/02/18 08:45:27;;;;;;;10.80;3.00;;;6.40;96.30;;;;;;5034194;28;20419;-78
2022/02/18 08:47:53;;;;;;;7.17;1.93;;;6.60;96.30;;;;;;5033209;28;20411;-78
2022/02/18 08:50:19;;;;;;;12.63;2.90;;;6.90;96.30;;;;;;5034266;28;20498;-77
2022/02/18 08:52:44;;;;;;;7.03;2.20;;;7.10;96.30;;;;;;5034538;28;20290;-77
2022/02/18 08:55:14;;;;;;;18.33;3.23;;;7.00;96.30;;;;;;5026644;28;20234;-77
2022/02/18 08:57:41;;;;;;;12.30;3.73;;;6.80;96.30;;;;;;5033066;28;20184;-77
2022/02/18 09:00:07;;;;;;;13.30;4.37;;;7.00;96.30;;;;;;5026309;28;20792;-78
2022/02/18 09:02:37;;;;;;;9.63;2.67;;;7.30;96.30;;;;;;5032518;28;20473;-77
2022/02/18 09:05:03;;;;;;;9.03;2.40;;;7.60;96.30;;;;;;5025730;28;20415;-74
2022/02/18 09:07:29;;;;;;;21.27;4.20;;;7.30;96.30;;;;;;5032813;28;20415;-77
2022/02/18 09:09:56;;;;;;;16.37;3.47;;;7.70;96.30;;;;;;5044108;28;20780;-76
2022/02/18 09:12:22;;;;;;;17.07;3.20;;;7.70;96.30;;;;;;5053753;28;20434;-74
2022/02/18 09:14:48;;;;;;;14.13;2.93;;;8.00;96.30;;;;;;5053644;28;20418;-74
2022/02/18 09:17:13;;;;;;;10.53;2.47;;;8.00;96.30;;;;;;5053718;28;20414;-74
2022/02/18 09:19:39;;;;;;;14.70;2.50;;;7.70;96.30;;;;;;5045181;28;20690;-78
2022/02/18 09:22:05;;;;;;;13.10;2.40;;;7.60;96.30;;;;;;5038286;28;20218;-74
2022/02/18 09:24:30;;;;;;;11.63;3.37;;;7.60;96.30;;;;;;5048693;28;20646;-74
2022/02/18 09:26:56;;;;;;;11.50;3.60;;;7.70;96.30;;;;;;5044246;28;20192;-74
2022/02/18 09:29:21;;;;;;;15.40;3.27;;;7.60;96.30;;;;;;5053614;28;20693;-77
2022/02/18 09:31:47;;;;;;;13.50;2.83;;;7.60;96.30;;;;;;5053380;28;20199;-74
2022/02/18 09:34:13;;;;;;;11.80;2.47;;;7.60;96.30;;;;;;5053457;28;20183;-74
2022/02/18 09:36:39;;;;;;;10.07;2.40;;;7.50;96.30;;;;;;5053279;28;20180;-74
2022/02/18 09:39:06;;;;;;;16.37;3.37;;;7.50;96.30;;;;;;5053335;28;20258;-74
2022/02/18 09:41:35;;;;;;;11.13;2.10;;;7.50;96.30;;;;;;5053171;28;20461;-74
2022/02/18 09:44:02;;;;;;;13.37;2.20;;;7.50;96.30;;;;;;5053223;28;20844;-74
2022/02/18 09:46:28;;;;;;;13.00;3.43;;;7.50;96.30;;;;;;5052844;28;20494;-74
2022/02/18 09:48:54;;;;;;;7.90;2.37;;;7.70;96.30;;;;;;5051783;28;21091;-74
2022/02/18 09:51:20;;;;;;;7.90;2.80;;;7.80;96.30;;;;;;5053088;28;20529;-74
2022/02/18 09:53:46;;;;;;;15.87;2.20;;;7.70;96.30;;;;;;5050483;28;20263;-74
2022/02/18 09:56:14;;;;;;;8.00;2.30;;;7.70;96.30;;;;;;5052798;28;20171;-74
2022/02/18 09:58:39;;;;;;;11.70;2.00;;;7.80;96.30;;;;;;5052807;28;20456;-74
2022/02/18 10:01:05;;;;;;;9.33;2.00;;;7.60;96.30;;;;;;5052788;28;20454;-75
2022/02/18 10:03:31;;;;;;;6.80;1.80;;;7.60;96.30;;;;;;5052752;28;20175;-76
2022/02/18 10:05:56;;;;;;;10.53;2.30;;;7.60;96.30;;;;;;5052658;28;20176;-77
2022/02/18 10:08:22;;;;;;;12.67;2.70;;;7.60;96.30;;;;;;5061089;28;20181;-77
2022/02/18 10:11:06;;;;;;;12.20;2.17;;;7.50;96.30;;;;;;5041178;28;20196;-77
2022/02/18 10:13:38;;;;;;;11.47;2.20;;;7.40;96.30;;;;;;5056130;28;20225;-77
2022/02/18 10:16:09;;;;;;;8.50;1.90;;;7.40;96.30;;;;;;5055030;28;20454;-77
2022/02/18 10:18:50;;;;;;;7.00;1.93;;;7.30;96.30;;;;;;5060750;28;20467;-77
2022/02/18 10:21:18;;;;;;;7.77;1.67;;;7.40;96.30;;;;;;5052524;28;20507;-76
2022/02/18 10:23:44;;;;;;;10.27;1.83;;;7.40;96.30;;;;;;5060307;28;20457;-77
2022/02/18 10:26:10;;;;;;;11.97;2.13;;;7.50;96.30;;;;;;5053305;28;20418;-76
2022/02/18 10:28:35;;;;;;;12.70;2.23;;;7.50;96.30;;;;;;5056507;28;20477;-78
2022/02/18 10:31:03;;;;;;;13.93;2.77;;;7.50;96.30;;;;;;5049592;28;20253;-77
2022/02/18 10:33:29;;;;;;;7.47;2.20;;;7.60;96.30;;;;;;5059194;28;20572;-77
2022/02/18 10:36:03;;;;;;;10.77;2.27;;;7.50;96.30;;;;;;5057882;28;20429;-77
2022/02/18 10:38:34;;;;;;;10.70;3.03;;;7.50;96.30;;;;;;5058178;28;20176;-77
2022/02/18 10:41:01;;;;;;;9.33;2.30;;;7.50;96.30;;;;;;5058678;28;20436;-77
2022/02/18 10:43:27;;;;;;;15.10;2.63;;;7.50;96.30;;;;;;5057814;28;20552;-77
2022/02/18 10:45:55;;;;;;;16.63;2.70;;;7.50;96.30;;;;;;5056763;28;20980;-77
2022/02/18 10:48:21;;;;;;;12.27;2.13;;;7.60;96.30;;;;;;5050525;28;20456;-77
2022/02/18 10:51:08;;;;;;;10.37;2.70;;;7.60;96.30;;;;;;5057099;28;20426;-77
2022/02/18 10:53:39;;;;;;;4.70;1.93;;;7.40;96.30;;;;;;5056296;28;20418;-78
2022/02/18 10:56:06;;;;;;;9.43;1.77;;;7.30;96.30;;;;;;5045531;28;20418;-77
2022/02/18 10:58:43;;;;;;;4.53;1.47;;;7.10;96.30;;;;;;5051975;28;20410;-78
2022/02/18 11:01:13;;;;;;;11.57;2.07;;;7.10;96.30;;;;;;5052008;28;20440;-78
2022/02/18 11:04:01;;;;;;;6.30;1.40;;;7.00;96.30;;;;;;5053079;28;20497;-78
2022/02/18 11:06:28;;;;;;;7.53;1.67;;;6.90;96.30;;;;;;5051814;28;20413;-78
2022/02/18 11:09:08;;;;;;;6.77;1.80;;;6.70;96.30;;;;;;5050692;28;20418;-76
2022/02/18 11:11:37;;;;;;;10.57;2.03;;;6.50;96.30;;;;;;5056783;28;20494;-77
2022/02/18 11:14:05;;;;;;;8.10;1.47;;;6.30;96.30;;;;;;5049785;28;20471;-78
2022/02/18 11:16:33;;;;;;;14.13;2.47;;;6.20;96.30;;;;;;5058430;28;20649;-79
2022/02/18 11:18:59;;;;;;;11.10;4.30;;;6.20;96.30;;;;;;5060393;28;20430;-80
2022/02/18 11:21:27;;;;;;;4.70;1.50;;;6.10;96.30;;;;;;5055075;28;20651;-80
2022/02/18 11:23:54;;;;;;;10.93;1.90;;;5.90;96.30;;;;;;5057368;28;20429;-78
2022/02/18 11:26:22;;;;;;;6.67;1.80;;;5.90;96.30;;;;;;5058611;28;20781;-76
2022/02/18 11:28:49;;;;;;;11.80;3.33;;;5.80;96.30;;;;;;5058613;28;20413;-76
2022/02/18 11:42:08;;;;;;;15.10;3.60;;;5.80;96.30;;;;;;5319254;23;20488;-78
2022/02/18 11:44:34;;;;;;;20.83;9.00;;;5.90;96.30;;;;;;5040172;28;20459;-79
2022/02/18 11:47:12;;;;;;;14.47;4.77;;;5.90;96.30;;;;;;5058296;28;20812;-78
2022/02/18 11:49:38;;;;;;;9.03;2.90;;;5.90;96.30;;;;;;5040503;28;20799;-77
2022/02/18 11:52:09;;;;;;;9.50;1.77;;;5.90;96.30;;;;;;5058186;28;20917;-77
2022/02/18 11:54:36;;;;;;;5.10;2.20;;;5.80;96.30;;;;;;5057682;28;20441;-78
2022/02/18 11:57:07;;;;;;;7.93;2.90;;;5.80;96.30;;;;;;5057897;28;20761;-77
2022/02/18 11:59:59;;;;;;;10.63;4.60;;;5.80;96.30;;;;;;5057716;28;20405;-79
2022/02/18 12:02:43;;;;;;;18.97;5.17;;;5.80;96.30;;;;;;5020176;28;20492;-78
2022/02/18 12:05:13;;;;;;;52.80;23.60;;;5.80;96.30;;;;;;5037932;28;20415;-77
2022/02/18 12:07:41;;;;;;;34.57;12.63;;;5.80;96.30;;;;;;5037976;28;20931;-80
2022/02/18 12:10:16;;;;;;;11.43;4.87;;;5.90;96.30;;;;;;5040256;28;20425;-77
2022/02/18 12:12:42;;;;;;;6.10;1.97;;;5.90;96.30;;;;;;5058001;28;20882;-77
2022/02/18 12:15:19;;;;;;;11.03;2.77;;;5.80;96.30;;;;;;5041581;28;20413;-79
2022/02/18 12:17:49;;;;;;;7.13;3.50;;;5.90;96.30;;;;;;5060330;28;20155;-80
2022/02/18 12:20:17;;;;;;;10.23;3.43;;;6.00;96.30;;;;;;5042738;28;20420;-80
2022/02/18 12:22:44;;;;;;;6.57;2.23;;;5.90;96.30;;;;;;5056671;28;20449;-80
2022/02/18 12:25:27;;;;;;;10.33;2.50;;;6.00;96.30;;;;;;5057162;28;20761;-79
2022/02/18 12:28:19;;;;;;;9.00;2.10;;;5.90;96.30;;;;;;5056911;28;20398;-80
2022/02/18 12:30:54;;;;;;;5.90;2.03;;;6.00;96.30;;;;;;5045367;28;20438;-79
2022/02/18 12:33:20;;;;;;;5.80;2.10;;;6.00;96.30;;;;;;5057022;28;20410;-80
2022/02/18 12:35:46;;;;;;;7.83;2.53;;;6.20;96.30;;;;;;5038408;28;20421;-80
2022/02/18 12:38:12;;;;;;;5.20;1.37;;;6.20;96.30;;;;;;5038216;28;20198;-79
2022/02/18 12:40:39;;;;;;;8.30;2.70;;;6.20;96.30;;;;;;5020772;28;20819;-80
2022/02/18 12:43:11;;;;;;;7.40;1.77;;;6.30;96.30;;;;;;5018797;28;20207;-79
2022/02/18 12:45:52;;;;;;;7.27;1.73;;;6.40;96.30;;;;;;5018087;28;20464;-79
2022/02/18 12:48:50;;;;;;;11.13;2.43;;;6.50;96.30;;;;;;5036309;28;20411;-79
2022/02/18 12:51:26;;;;;;;4.63;1.50;;;6.60;96.30;;;;;;5036338;28;20427;-78
2022/02/18 12:53:53;;;;;;;5.60;2.73;;;6.70;96.30;;;;;;5017577;28;20406;-78
2022/02/18 12:56:24;;;;;;;7.77;2.03;;;6.70;96.30;;;;;;5035560;28;20407;-77
2022/02/18 12:59:10;;;;;;;25.67;17.30;;;6.80;96.30;;;;;;5018318;28;20790;-78
2022/02/18 13:01:38;;;;;;;10.33;2.73;;;6.80;96.30;;;;;;5035216;28;21037;-77
2022/02/18 13:04:16;;;;;;;12.13;6.10;;;6.80;96.30;;;;;;5017268;28;20761;-78
2022/02/18 13:06:42;;;;;;;5.37;1.80;;;6.90;96.30;;;;;;5016855;28;20406;-78
2022/02/18 13:09:07;;;;;;;5.37;2.30;;;6.90;96.30;;;;;;5022200;28;20437;-78
2022/02/18 13:11:33;;;;;;;11.00;5.70;;;6.90;96.30;;;;;;5054228;28;20592;-77
2022/02/18 13:14:11;;;;;;;4.77;1.83;;;7.00;96.30;;;;;;5037271;28;20176;-77
2022/02/18 13:16:36;;;;;;;5.40;2.00;;;7.00;96.30;;;;;;5036649;28;20219;-76
2022/02/18 13:19:02;;;;;;;6.93;2.07;;;7.00;96.30;;;;;;5053986;28;20461;-76
2022/02/18 13:21:29;;;;;;;4.77;1.47;;;6.90;96.30;;;;;;5050219;28;20207;-76
2022/02/18 13:23:55;;;;;;;2.53;1.37;;;6.80;96.30;;;;;;5053463;28;20167;-77
2022/02/18 13:26:26;;;;;;;4.57;1.53;;;6.90;96.30;;;;;;5035208;28;20416;-75
2022/02/18 13:28:52;;;;;;;3.47;1.50;;;6.90;96.30;;;;;;5053640;28;20168;-75
2022/02/18 13:31:17;;;;;;;2.60;1.53;;;6.90;96.30;;;;;;5053496;28;20422;-76
2022/02/18 13:33:51;;;;;;;4.07;1.77;;;6.80;96.30;;;;;;5052888;28;20175;-76
2022/02/18 13:36:25;;;;;;;4.50;3.00;;;6.80;96.30;;;;;;5053308;28;20168;-75
2022/02/18 13:38:57;;;;;;;3.47;2.47;;;6.80;96.30;;;;;;5053679;28;20473;-75
2022/02/18 13:41:33;;;;;;;3.40;1.70;;;6.80;96.30;;;;;;5035414;28;20811;-75
2022/02/18 13:44:01;;;;;;;19.33;11.10;;;6.90;96.30;;;;;;5035410;28;20976;-76
2022/02/18 13:46:30;;;;;;;7.00;5.50;;;7.00;96.30;;;;;;5035206;28;20406;-77
2022/02/18 13:48:57;;;;;;;3.33;2.07;;;7.10;96.30;;;;;;5017387;28;20971;-76
2022/02/18 13:51:26;;;;;;;3.63;1.20;;;7.10;96.30;;;;;;5033436;28;20441;-76
2022/02/18 13:53:52;;;;;;;1.63;1.00;;;7.20;96.30;;;;;;5033637;28;20395;-76
2022/02/18 13:56:26;;;;;;;2.67;1.27;;;7.30;96.30;;;;;;5015528;28;20415;-76
2022/02/18 13:58:52;;;;;;;4.10;1.10;;;7.30;96.30;;;;;;5033357;28;20454;-77
2022/02/18 14:01:20;;;;;;;3.40;1.37;;;7.40;96.30;;;;;;5015444;28;20484;-76
2022/02/18 14:03:58;;;;;;;4.30;1.03;;;7.50;96.30;;;;;;5015795;28;20420;-77
2022/02/18 14:06:30;;;;;;;1.73;0.90;;;7.50;96.30;;;;;;5033047;28;20410;-77
2022/02/18 14:08:59;;;;;;;4.07;1.33;;;7.60;96.30;;;;;;5033294;28;20414;-77
2022/02/18 14:11:25;;;;;;;3.90;1.00;;;7.60;96.30;;;;;;5047817;28;20818;-77
2022/02/18 14:13:54;;;;;;;2.80;1.50;;;7.70;96.30;;;;;;5035102;28;20791;-77
2022/02/18 14:16:28;;;;;;;3.63;1.40;;;7.80;96.30;;;;;;5052633;28;20398;-76
2022/02/18 14:19:01;;;;;;;2.33;1.40;;;7.80;96.30;;;;;;5035083;28;20421;-78
2022/02/18 14:21:28;;;;;;;2.87;1.30;;;7.80;96.30;;;;;;5034851;28;20434;-76
2022/02/18 14:23:56;;;;;;;2.80;1.43;;;7.80;96.30;;;;;;5034858;28;20471;-77
2022/02/18 14:26:23;;;;;;;5.63;1.30;;;7.90;96.30;;;;;;5053081;28;20806;-78
2022/02/18 14:28:51;;;;;;;3.77;1.40;;;7.90;96.30;;;;;;5042425;28;20438;-76
2022/02/18 14:31:27;;;;;;;3.47;1.20;;;7.90;96.30;;;;;;5038184;28;20523;-76
2022/02/18 14:33:57;;;;;;;3.40;1.13;;;7.90;96.30;;;;;;5034883;28;20424;-75
2022/02/18 14:36:34;;;;;;;5.13;1.77;;;7.90;96.30;;;;;;5034532;28;20442;-75
2022/02/18 14:39:01;;;;;;;3.00;1.10;;;7.90;96.30;;;;;;5028613;28;20446;-76
2022/02/18 14:41:27;;;;;;;2.47;1.20;;;7.90;96.30;;;;;;5036444;28;20456;-78
2022/02/18 14:43:56;;;;;;;3.70;1.10;;;7.90;96.30;;;;;;5051979;28;20767;-75
2022/02/18 14:46:21;;;;;;;4.23;1.37;;;7.90;96.30;;;;;;5051374;28;20524;-75
2022/02/18 14:48:47;;;;;;;5.00;1.53;;;8.00;96.30;;;;;;5052285;28;20403;-76
2022/02/18 14:51:15;;;;;;;4.83;1.60;;;8.00;96.30;;;;;;5052096;28;20188;-75
2022/02/18 14:53:52;;;;;;;4.33;1.87;;;8.00;96.30;;;;;;5052162;28;20168;-76
2022/02/18 14:56:18;;;;;;;3.67;1.13;;;8.10;96.30;;;;;;5041410;28;20767;-77
2022/02/18 14:58:43;;;;;;;4.63;1.37;;;8.20;96.30;;;;;;5038656;28;20426;-76
2022/02/18 15:01:09;;;;;;;2.63;1.33;;;8.20;96.30;;;;;;5051922;28;20422;-77
2022/02/18 15:03:36;;;;;;;3.43;1.43;;;8.10;96.30;;;;;;5051867;28;20207;-77
2022/02/18 15:06:03;;;;;;;3.90;1.00;;;8.20;96.30;;;;;;5033535;28;20202;-76
2022/02/18 15:08:28;;;;;;;3.90;1.87;;;8.20;96.30;;;;;;5051781;28;20974;-77
2022/02/18 15:10:54;;;;;;;5.70;1.57;;;8.20;96.30;;;;;;5051550;28;20426;-76
2022/02/18 15:13:19;;;;;;;2.47;1.50;;;8.20;96.30;;;;;;5051759;28;20194;-78
2022/02/18 15:15:45;;;;;;;4.10;1.50;;;8.20;96.30;;;;;;5051308;28;20172;-77
2022/02/18 15:18:10;;;;;;;6.47;1.93;;;8.20;96.30;;;;;;5034010;28;20694;-76
2022/02/18 15:20:36;;;;;;;4.73;1.37;;;8.10;96.30;;;;;;5051720;28;20241;-77
2022/02/18 15:23:05;;;;;;;7.80;1.47;;;8.20;96.30;;;;;;5051612;28;20557;-77
2022/02/18 15:25:32;;;;;;;5.03;1.30;;;8.10;96.30;;;;;;5051279;28;20195;-75
2022/02/18 15:27:58;;;;;;;5.13;1.80;;;8.20;96.30;;;;;;5051898;28;20403;-81
2022/02/18 15:35:52;;;;;;;14.67;4.40;;;8.20;96.30;;;;;;5045464;28;20422;-77
2022/02/18 15:38:17;;;;;;;6.83;1.93;;;8.20;96.30;;;;;;5031739;28;20415;-74
2022/02/18 15:43:27;;;;;;;23.40;8.90;;;8.20;96.30;;;;;;5031651;28;20802;-75
2022/02/18 15:45:53;;;;;;;20.93;5.50;;;8.20;96.30;;;;;;5031267;28;20399;-74
2022/02/18 15:48:19;;;;;;;13.63;5.33;;;8.30;96.30;;;;;;5014349;28;20439;-75
2022/02/18 15:50:45;;;;;;;15.40;6.47;;;8.30;96.30;;;;;;5032036;28;20427;-75
2022/02/18 15:53:11;;;;;;;25.33;8.63;;;8.40;96.30;;;;;;5031601;28;20526;-75
2022/02/18 15:55:36;;;;;;;45.27;12.37;;;8.40;96.30;;;;;;5031403;28;20592;-77
2022/02/18 15:58:02;;;;;;;21.80;7.20;;;8.40;96.30;;;;;;5035638;28;20176;-75
2022/02/18 16:00:28;;;;;;;5.50;2.10;;;8.40;96.30;;;;;;5035398;28;20230;-75
2022/02/18 16:02:54;;;;;;;6.47;1.60;;;8.50;96.30;;;;;;5035056;28;20199;-75
2022/02/18 16:05:19;;;;;;;8.33;2.27;;;8.50;96.30;;;;;;5035118;28;20395;-75
2022/02/18 16:07:45;;;;;;;6.77;2.00;;;8.40;96.30;;;;;;5035264;28;20180;-76
2022/02/18 16:10:11;;;;;;;7.93;2.33;;;8.50;96.30;;;;;;5035340;28;20176;-78
2022/02/18 16:12:38;;;;;;;6.20;1.77;;;8.60;96.30;;;;;;5035308;28;20254;-74
2022/02/18 16:15:07;;;;;;;4.40;1.57;;;8.70;96.30;;;;;;5051636;28;20194;-75
2022/02/18 16:17:32;;;;;;;4.47;2.27;;;8.60;96.30;;;;;;5054866;28;20893;-75
2022/02/18 16:19:58;;;;;;;4.23;1.53;;;8.60;96.30;;;;;;5037044;28;20418;-75
2022/02/18 16:22:24;;;;;;;6.63;1.90;;;8.60;96.30;;;;;;5036998;28;20219;-74
2022/02/18 16:24:49;;;;;;;4.20;1.33;;;8.70;96.30;;;;;;5036419;28;20550;-76
2022/02/18 16:27:15;;;;;;;3.00;1.30;;;8.80;96.30;;;;;;5037058;28;20229;-74
2022/02/18 16:29:42;;;;;;;7.60;1.90;;;8.90;96.30;;;;;;5054855;28;20183;-74
2022/02/18 16:32:08;;;;;;;5.30;1.77;;;8.90;96.30;;;;;;5054799;28;20429;-76
2022/02/18 16:34:34;;;;;;;3.40;1.30;;;9.00;96.30;;;;;;5053910;28;20413;-78
2022/02/18 16:37:01;;;;;;;6.87;2.03;;;9.00;96.30;;;;;;5036718;28;20426;-75
2022/02/18 16:39:27;;;;;;;5.17;1.60;;;9.00;96.30;;;;;;5054716;28;20217;-74
2022/02/18 16:41:53;;;;;;;4.87;1.70;;;9.00;96.30;;;;;;5054455;28;20830;-76
2022/02/18 16:44:18;;;;;;;4.90;2.13;;;9.10;96.30;;;;;;5054213;28;20788;-74
2022/02/18 16:46:44;;;;;;;4.57;1.63;;;9.10;96.30;;;;;;5054353;28;20239;-77
2022/02/18 16:49:10;;;;;;;4.60;1.90;;;9.00;96.30;;;;;;5054541;28;20176;-74
2022/02/18 16:51:36;;;;;;;5.37;1.53;;;9.00;96.30;;;;;;5063235;28;20243;-78
2022/02/18 16:54:03;;;;;;;5.43;1.57;;;9.10;96.30;;;;;;5039994;28;20619;-78
2022/02/18 16:56:28;;;;;;;4.57;1.73;;;9.20;96.30;;;;;;5053574;28;20164;-77
2022/02/18 16:58:55;;;;;;;3.77;1.50;;;9.20;96.30;;;;;;5054126;28;20421;-76
2022/02/18 17:01:21;;;;;;;3.93;1.87;;;9.30;96.30;;;;;;5053769;28;20183;-76
2022/02/18 17:03:46;;;;;;;4.57;2.80;;;9.30;96.30;;;;;;5054956;28;20410;-78
2022/02/18 17:06:12;;;;;;;6.13;2.20;;;9.20;96.30;;;;;;5054919;28;20172;-78
2022/02/18 17:08:38;;;;;;;3.93;1.50;;;9.30;96.30;;;;;;5059627;28;20643;-76
2022/02/18 17:11:04;;;;;;;6.13;2.23;;;9.40;96.30;;;;;;5031522;28;20215;-76
2022/02/18 17:13:30;;;;;;;6.40;1.60;;;9.50;96.30;;;;;;5033592;28;20403;-74
2022/02/18 17:15:56;;;;;;;5.37;1.60;;;9.60;96.30;;;;;;5037342;28;20179;-79
2022/02/18 17:18:22;;;;;;;3.57;1.40;;;9.50;96.30;;;;;;5044740;28;20421;-77
2022/02/18 17:20:48;;;;;;;2.03;0.77;;;9.60;96.30;;;;;;5039616;28;20238;-78
2022/02/18 17:23:13;;;;;;;3.53;1.33;;;9.70;96.30;;;;;;5052682;28;20195;-78
2022/02/18 17:25:39;;;;;;;4.30;1.93;;;9.80;96.30;;;;;;5039866;28;20417;-76
2022/02/18 17:28:05;;;;;;;5.00;1.30;;;9.60;96.30;;;;;;5053270;28;20567;-75
2022/02/18 17:30:31;;;;;;;2.50;1.07;;;9.60;96.30;;;;;;5053471;28;20406;-79
2022/02/18 17:32:58;;;;;;;6.73;3.10;;;9.70;96.30;;;;;;5052864;28;20529;-79
2022/02/18 17:35:24;;;;;;;17.67;9.80;;;9.70;96.30;;;;;;5052476;28;20694;-79
2022/02/18 17:37:50;;;;;;;4.20;2.20;;;9.70;96.30;;;;;;5053566;28;20425;-78
2022/02/18 17:40:17;;;;;;;3.40;1.80;;;9.70;96.30;;;;;;5035848;28;20434;-79
2022/02/18 17:42:45;;;;;;;2.80;1.73;;;9.60;96.30;;;;;;5053909;28;20449;-78
2022/02/18 17:45:11;;;;;;;6.30;4.33;;;9.50;96.30;;;;;;5052539;28;20795;-76
2022/02/18 17:47:37;;;;;;;4.50;1.30;;;9.60;96.30;;;;;;5048694;28;20916;-81